createdAt,value
2018-09-08T00:01:57.830Z,4.20
2018-09-08T00:04:29.494Z,4.23
2018-09-08T00:07:06.065Z,3.77
2018-09-08T00:09:37.808Z,3.77
2018-09-08T00:12:09.458Z,4.47
2018-09-08T00:14:39.970Z,4.20
2018-09-08T00:17:16.580Z,4.57
2018-09-08T00:19:53.261Z,4.83
2018-09-08T00:22:30.009Z,5.10
2018-09-08T00:25:06.651Z,5.97
2018-09-08T00:27:42.342Z,4.33
2018-09-08T00:30:15.108Z,4.10
2018-09-08T00:32:46.887Z,4.63
2018-09-08T00:35:18.674Z,5.20
2018-09-08T00:37:50.306Z,3.87
2018-09-08T00:40:22.578Z,3.60
2018-09-08T00:42:54.331Z,4.07
2018-09-08T00:45:26.086Z,5.00
2018-09-08T00:47:57.761Z,5.47
2018-09-08T00:50:29.610Z,4.43
2018-09-08T00:53:01.465Z,4.67
2018-09-08T00:55:33.261Z,5.47
2018-09-08T00:58:04.895Z,4.93
2018-09-08T01:00:36.740Z,4.60
2018-09-08T01:03:08.631Z,4.50
2018-09-08T01:05:40.286Z,4.80
2018-09-08T01:08:12.120Z,3.37
2018-09-08T01:10:43.906Z,3.33
2018-09-08T01:13:15.658Z,3.07
2018-09-08T01:15:47.500Z,3.50
2018-09-08T01:18:19.266Z,2.60
2018-09-08T01:20:50.961Z,3.03
2018-09-08T01:23:22.795Z,2.67
2018-09-08T01:25:54.638Z,2.90
2018-09-08T01:28:26.313Z,3.07
2018-09-08T01:30:58.050Z,2.67
2018-09-08T01:33:29.902Z,2.07
2018-09-08T01:36:01.708Z,2.83
2018-09-08T01:38:33.344Z,2.83
2018-09-08T01:41:05.224Z,2.73
2018-09-08T01:43:36.874Z,3.00
2018-09-08T01:46:08.870Z,3.53
2018-09-08T01:48:40.769Z,3.63
2018-09-08T01:51:12.509Z,3.60
2018-09-08T01:53:44.312Z,3.30
2018-09-08T01:56:16.153Z,3.43
2018-09-08T01:58:47.919Z,3.97
2018-09-08T02:01:19.708Z,4.17
2018-09-08T02:03:51.465Z,4.63
2018-09-08T02:06:23.224Z,3.63
2018-09-08T02:08:54.918Z,3.47
2018-09-08T02:11:26.850Z,4.47
2018-09-08T02:13:58.425Z,4.10
2018-09-08T02:16:30.237Z,4.60
2018-09-08T02:19:02.064Z,3.90
2018-09-08T02:21:33.757Z,3.40
2018-09-08T02:24:05.637Z,2.67
2018-09-08T02:26:37.470Z,4.30
2018-09-08T02:29:09.228Z,3.13
2018-09-08T02:31:40.913Z,4.30
2018-09-08T02:34:12.749Z,3.40
2018-09-08T02:36:44.511Z,3.40
2018-09-08T02:39:16.286Z,3.43
2018-09-08T02:41:48.230Z,3.40
2018-09-08T02:44:19.981Z,3.70
2018-09-08T02:46:51.776Z,3.27
2018-09-08T02:49:24.425Z,3.97
2018-09-08T02:51:53.506Z,4.47
2018-09-08T02:54:22.607Z,3.30
2018-09-08T02:56:51.701Z,4.33
2018-09-08T02:59:20.794Z,3.67
2018-09-08T03:01:49.836Z,3.93
2018-09-08T03:04:18.891Z,4.43
2018-09-08T03:06:47.985Z,4.23
2018-09-08T03:09:17.122Z,3.20
2018-09-08T03:11:46.228Z,3.97
2018-09-08T03:14:15.321Z,4.07
2018-09-08T03:16:44.370Z,3.93
2018-09-08T03:19:13.464Z,3.40
2018-09-08T03:21:42.566Z,4.60
2018-09-08T03:24:11.662Z,3.60
2018-09-08T03:26:40.750Z,4.10
2018-09-08T03:29:09.954Z,4.03
2018-09-08T03:31:38.994Z,2.83
2018-09-08T03:34:08.043Z,3.93
2018-09-08T03:36:37.142Z,4.77
2018-09-08T03:39:06.443Z,4.43
2018-09-08T03:41:36.097Z,4.60
2018-09-08T03:44:05.295Z,3.60
2018-09-08T03:46:34.392Z,3.80
2018-09-08T03:49:03.488Z,4.07
2018-09-08T03:51:32.584Z,4.13
2018-09-08T03:54:01.636Z,3.43
2018-09-08T03:56:30.678Z,3.90
2018-09-08T03:59:00.816Z,3.80
2018-09-08T04:01:29.891Z,3.60
2018-09-08T04:04:01.821Z,3.20
2018-09-08T04:06:33.596Z,3.43
2018-09-08T04:09:07.706Z,3.43
2018-09-08T04:11:39.676Z,2.80
2018-09-08T04:14:11.422Z,2.90
2018-09-08T04:16:43.203Z,3.20
2018-09-08T04:19:15.042Z,3.40
2018-09-08T04:21:46.798Z,3.87
2018-09-08T04:24:18.560Z,4.23
2018-09-08T04:26:51.132Z,3.83
2018-09-08T04:29:22.956Z,4.10
2018-09-08T04:31:54.890Z,3.73
2018-09-08T04:34:26.651Z,3.23
2018-09-08T04:36:58.272Z,3.97
2018-09-08T04:39:29.945Z,3.77
2018-09-08T04:42:01.610Z,3.70
2018-09-08T04:44:33.247Z,3.50
2018-09-08T04:47:05.121Z,3.47
2018-09-08T04:49:36.896Z,3.73
2018-09-08T04:52:08.545Z,3.80
2018-09-08T04:54:40.283Z,4.13
2018-09-08T04:57:11.948Z,3.90
2018-09-08T04:59:43.622Z,3.70
2018-09-08T05:02:15.451Z,4.00
2018-09-08T05:04:47.342Z,3.33
2018-09-08T05:07:19.104Z,3.60
2018-09-08T05:09:50.946Z,3.53
2018-09-08T05:12:22.686Z,4.40
2018-09-08T05:14:54.369Z,4.03
2018-09-08T05:17:26.101Z,3.63
2018-09-08T05:19:57.957Z,4.07
2018-09-08T05:22:29.789Z,4.13
2018-09-08T05:25:01.624Z,3.03
2018-09-08T05:27:33.554Z,3.10
2018-09-08T05:30:05.400Z,3.73
2018-09-08T05:32:37.273Z,2.50
2018-09-08T05:35:09.407Z,3.13
2018-09-08T05:37:40.998Z,3.17
2018-09-08T05:40:12.779Z,2.93
2018-09-08T05:42:44.551Z,2.87
2018-09-08T05:45:16.312Z,3.17
2018-09-08T05:47:47.950Z,3.53
2018-09-08T05:50:19.893Z,3.43
2018-09-08T05:52:51.682Z,3.13
2018-09-08T05:55:23.337Z,3.70
2018-09-08T05:57:55.103Z,2.63
2018-09-08T06:00:26.731Z,2.53
2018-09-08T06:02:58.505Z,3.07
2018-09-08T06:05:30.249Z,2.67
2018-09-08T06:08:02.150Z,3.10
2018-09-08T06:10:33.900Z,3.03
2018-09-08T06:13:05.581Z,3.00
2018-09-08T06:15:37.412Z,2.90
2018-09-08T06:18:09.183Z,2.97
2018-09-08T06:20:40.905Z,3.60
2018-09-08T06:23:12.561Z,3.30
2018-09-08T06:25:44.318Z,2.50
2018-09-08T06:28:16.095Z,2.10
2018-09-08T06:30:47.976Z,2.03
2018-09-08T06:33:19.810Z,1.90
2018-09-08T06:35:51.562Z,2.10
2018-09-08T06:38:23.348Z,2.37
2018-09-08T06:40:55.010Z,2.50
2018-09-08T06:43:26.865Z,2.63
2018-09-08T06:45:58.599Z,3.00
2018-09-08T06:48:30.264Z,2.77
2018-09-08T06:51:02.129Z,2.10
2018-09-08T06:53:34.007Z,3.20
2018-09-08T06:56:05.800Z,4.53
2018-09-08T06:58:37.612Z,3.73
2018-09-08T07:01:09.734Z,3.50
2018-09-08T07:03:41.414Z,5.00
2018-09-08T07:06:13.310Z,3.47
2018-09-08T07:08:45.166Z,3.73
2018-09-08T07:11:16.807Z,2.53
2018-09-08T07:13:48.574Z,2.83
2018-09-08T07:16:20.421Z,2.70
2018-09-08T07:18:52.196Z,3.00
2018-09-08T07:21:23.943Z,3.93
2018-09-08T07:23:55.697Z,3.50
2018-09-08T07:26:27.557Z,3.57
2018-09-08T07:28:59.290Z,3.10
2018-09-08T07:31:31.078Z,3.53
2018-09-08T07:34:02.748Z,2.60
2018-09-08T07:36:34.509Z,4.40
2018-09-08T07:39:08.913Z,3.40
2018-09-08T07:41:40.611Z,2.97
2018-09-08T07:44:12.431Z,2.40
2018-09-08T07:46:44.333Z,2.13
2018-09-08T07:49:16.001Z,4.80
2018-09-08T07:51:47.809Z,3.07
2018-09-08T07:54:19.559Z,3.37
2018-09-08T07:56:51.360Z,5.40
2018-09-08T07:59:23.249Z,4.97
2018-09-08T08:01:55.062Z,3.80
2018-09-08T08:04:26.715Z,3.97
2018-09-08T08:06:58.631Z,2.90
2018-09-08T08:09:30.427Z,2.70
2018-09-08T08:12:02.189Z,3.60
2018-09-08T08:14:33.932Z,3.43
2018-09-08T08:17:05.736Z,2.20
2018-09-08T08:19:38.046Z,3.10
2018-09-08T08:22:09.973Z,5.07
2018-09-08T08:24:41.718Z,6.40
2018-09-08T08:27:13.488Z,4.57
2018-09-08T08:29:45.162Z,5.50
2018-09-08T08:32:16.891Z,3.80
2018-09-08T08:34:48.637Z,1.97
2018-09-08T08:37:20.659Z,3.10
2018-09-08T08:39:52.483Z,2.43
2018-09-08T08:42:24.330Z,3.27
2018-09-08T08:44:56.212Z,3.00
2018-09-08T08:47:27.840Z,2.70
2018-09-08T08:50:15.554Z,2.97
2018-09-08T08:53:03.184Z,3.13
2018-09-08T08:55:34.865Z,2.50
2018-09-08T08:58:06.538Z,2.10
2018-09-08T09:00:38.277Z,2.57
2018-09-08T09:03:10.154Z,2.00
2018-09-08T09:05:42.008Z,2.37
2018-09-08T09:08:13.776Z,2.10
2018-09-08T09:10:45.417Z,2.10
2018-09-08T09:13:17.235Z,1.60
2018-09-08T09:16:00.580Z,2.43
2018-09-08T09:18:49.539Z,2.30
2018-09-08T09:21:37.635Z,2.63
2018-09-08T09:24:34.564Z,1.63
2018-09-08T09:27:06.121Z,2.20
2018-09-08T09:29:37.778Z,2.57
2018-09-08T09:32:09.649Z,2.03
2018-09-08T09:34:41.929Z,2.17
2018-09-08T09:37:13.889Z,2.83
2018-09-08T09:39:45.729Z,2.60
2018-09-08T09:42:17.479Z,2.20
2018-09-08T09:44:49.247Z,3.13
2018-09-08T09:47:20.961Z,1.63
2018-09-08T09:49:52.962Z,1.77
2018-09-08T09:52:26.377Z,2.70
2018-09-08T09:54:58.330Z,1.50
2018-09-08T09:57:30.119Z,1.40
2018-09-08T10:00:11.186Z,1.47
2018-09-08T10:03:17.664Z,1.30
2018-09-08T10:05:51.162Z,2.17
2018-09-08T10:08:22.958Z,1.70
2018-09-08T10:10:54.696Z,1.47
2018-09-08T10:13:26.812Z,1.00
2018-09-08T10:15:58.482Z,0.80
2018-09-08T10:18:30.494Z,1.40
2018-09-08T10:21:03.611Z,1.90
2018-09-08T10:23:35.455Z,1.30
2018-09-08T10:26:07.178Z,1.20
2018-09-08T10:28:38.942Z,1.30
2018-09-08T10:31:10.699Z,1.43
2018-09-08T10:33:42.459Z,1.20
2018-09-08T10:36:14.305Z,1.27
2018-09-08T10:38:46.155Z,1.27
2018-09-08T10:41:17.905Z,1.80
2018-09-08T10:43:49.679Z,1.30
2018-09-08T10:46:21.562Z,1.30
2018-09-08T10:48:53.489Z,1.27
2018-09-08T10:53:02.159Z,1.20
2018-09-08T10:55:33.847Z,1.10
2018-09-08T10:58:05.556Z,1.80
2018-09-08T11:00:37.406Z,1.23
2018-09-08T11:03:09.279Z,1.20
2018-09-08T11:05:41.055Z,1.50
2018-09-08T11:08:12.773Z,1.20
2018-09-08T11:10:44.446Z,1.10
2018-09-08T11:13:16.201Z,1.20
2018-09-08T11:15:48.092Z,1.50
2018-09-08T11:18:19.818Z,1.60
2018-09-08T11:20:51.489Z,1.07
2018-09-08T11:23:23.225Z,1.50
2018-09-08T11:25:55.020Z,1.90
2018-09-08T11:28:26.662Z,1.40
2018-09-08T11:30:58.402Z,1.27
2018-09-08T11:33:30.072Z,1.40
2018-09-08T11:36:01.822Z,1.37
2018-09-08T11:38:33.577Z,1.30
2018-09-08T11:41:05.357Z,1.13
2018-09-08T11:43:37.366Z,1.43
2018-09-08T11:46:09.290Z,1.40
2018-09-08T11:48:40.918Z,1.60
2018-09-08T11:51:12.547Z,1.27
2018-09-08T11:53:44.253Z,0.97
2018-09-08T11:56:16.026Z,0.90
2018-09-08T11:58:47.783Z,1.00
2018-09-08T12:01:19.500Z,1.00
2018-09-08T12:03:51.344Z,1.10
2018-09-08T12:06:22.942Z,1.10
2018-09-08T12:08:54.707Z,1.07
2018-09-08T12:11:26.565Z,1.13
2018-09-08T12:13:58.467Z,1.10
2018-09-08T12:16:30.158Z,1.23
2018-09-08T12:19:02.002Z,1.17
2018-09-08T12:21:33.695Z,1.20
2018-09-08T12:24:05.491Z,1.10
2018-09-08T12:26:37.403Z,1.20
2018-09-08T12:29:09.373Z,1.00
2018-09-08T12:31:41.161Z,1.30
2018-09-08T12:34:12.883Z,1.50
2018-09-08T12:36:44.854Z,1.30
2018-09-08T12:39:16.843Z,1.20
2018-09-08T12:41:48.593Z,0.83
2018-09-08T12:44:20.350Z,1.20
2018-09-08T12:46:52.095Z,1.20
2018-09-08T12:49:23.763Z,0.83
2018-09-08T12:51:55.418Z,1.10
2018-09-08T12:54:27.270Z,1.10
2018-09-08T12:56:58.935Z,1.13
2018-09-08T12:59:30.678Z,0.83
2018-09-08T13:02:02.433Z,0.70
2018-09-08T13:04:34.411Z,1.27
2018-09-08T13:07:06.194Z,1.07
2018-09-08T13:09:37.836Z,1.70
2018-09-08T13:12:09.991Z,1.20
2018-09-08T13:14:42.046Z,0.90
2018-09-08T13:17:13.693Z,0.80
2018-09-08T13:19:45.382Z,0.80
2018-09-08T13:22:17.082Z,0.80
2018-09-08T13:24:48.789Z,0.80
2018-09-08T13:27:20.594Z,1.30
2018-09-08T13:29:52.506Z,1.10
2018-09-08T13:32:24.166Z,1.10
2018-09-08T13:34:56.081Z,1.00
2018-09-08T13:37:27.878Z,1.30
2018-09-08T13:39:59.584Z,0.80
2018-09-08T13:42:31.330Z,0.57
2018-09-08T13:45:03.182Z,1.00
2018-09-08T13:47:34.954Z,0.70
2018-09-08T13:50:06.824Z,0.87
2018-09-08T13:52:38.680Z,1.00
2018-09-08T13:55:10.510Z,0.90
2018-09-08T13:57:42.157Z,0.90
2018-09-08T14:00:14.023Z,0.90
2018-09-08T14:02:45.894Z,0.90
2018-09-08T14:05:17.558Z,0.83
2018-09-08T14:07:54.041Z,1.00
2018-09-08T14:10:25.979Z,0.90
2018-09-08T14:12:57.765Z,0.50
2018-09-08T14:15:29.645Z,1.00
2018-09-08T14:18:01.376Z,0.90
2018-09-08T14:20:33.038Z,0.77
2018-09-08T14:23:04.788Z,0.80
2018-09-08T14:25:36.755Z,0.70
2018-09-08T14:28:08.491Z,0.90
2018-09-08T14:30:40.268Z,0.67
2018-09-08T14:33:12.011Z,0.70
2018-09-08T14:35:43.697Z,0.63
2018-09-08T14:38:15.453Z,0.60
2018-09-08T14:40:47.185Z,0.70
2018-09-08T14:43:18.867Z,0.70
2018-09-08T14:45:50.747Z,1.10
2018-09-08T14:48:22.697Z,0.83
2018-09-08T14:50:54.369Z,0.70
2018-09-08T14:53:26.187Z,0.60
2018-09-08T14:55:57.841Z,0.50
2018-09-08T14:58:29.611Z,0.50
2018-09-08T15:01:01.357Z,0.70
2018-09-08T15:03:33.217Z,1.00
2018-09-08T15:06:05.008Z,0.60
2018-09-08T15:08:36.862Z,0.67
2018-09-08T15:11:08.698Z,0.40
2018-09-08T15:13:40.462Z,0.50
2018-09-08T15:16:12.249Z,0.70
2018-09-08T15:18:44.094Z,0.50
2018-09-08T15:21:15.830Z,0.80
2018-09-08T15:23:47.490Z,0.60
2018-09-08T15:26:19.276Z,0.50
2018-09-08T15:28:51.023Z,0.60
2018-09-08T15:31:22.759Z,0.60
2018-09-08T15:33:54.729Z,0.50
2018-09-08T15:36:26.494Z,0.80
2018-09-08T15:38:58.275Z,0.57
2018-09-08T15:41:30.115Z,0.60
2018-09-08T15:44:01.777Z,0.73
2018-09-08T15:46:33.553Z,0.50
2018-09-08T15:49:05.431Z,0.53
2018-09-08T15:51:37.396Z,0.90
2018-09-08T15:54:10.159Z,0.67
2018-09-08T15:56:41.814Z,0.50
2018-09-08T15:59:13.567Z,0.60
2018-09-08T16:01:45.339Z,0.77
2018-09-08T16:04:17.203Z,0.43
2018-09-08T16:06:49.045Z,0.60
2018-09-08T16:09:20.818Z,0.97
2018-09-08T16:11:52.584Z,0.60
2018-09-08T16:14:24.377Z,0.70
2018-09-08T16:16:56.305Z,0.67
2018-09-08T16:19:27.946Z,0.40
2018-09-08T16:21:59.610Z,0.50
2018-09-08T16:24:31.376Z,0.50
2018-09-08T16:27:03.239Z,0.40
2018-09-08T16:29:34.937Z,0.53
2018-09-08T16:32:06.643Z,0.40
2018-09-08T16:34:38.382Z,0.40
2018-09-08T16:37:10.165Z,0.40
2018-09-08T16:39:41.906Z,0.50
2018-09-08T16:42:13.650Z,0.50
2018-09-08T16:44:45.552Z,0.50
2018-09-08T16:47:17.307Z,0.40
2018-09-08T16:49:48.941Z,0.40
2018-09-08T16:52:20.815Z,0.50
2018-09-08T16:54:52.465Z,0.60
2018-09-08T16:57:24.134Z,0.60
2018-09-08T16:59:55.907Z,0.60
2018-09-08T17:02:27.638Z,0.40
2018-09-08T17:04:59.413Z,0.53
2018-09-08T17:07:31.349Z,0.50
2018-09-08T17:10:03.126Z,0.50
2018-09-08T17:12:34.677Z,0.70
2018-09-08T17:15:06.882Z,0.60
2018-09-08T17:17:38.718Z,0.40
2018-09-08T17:20:10.462Z,0.60
2018-09-08T17:22:42.231Z,0.50
2018-09-08T17:25:13.965Z,0.50
2018-09-08T17:27:45.761Z,0.50
2018-09-08T17:30:17.512Z,0.80
2018-09-08T17:32:49.380Z,0.80
2018-09-08T17:35:21.018Z,0.70
2018-09-08T17:37:52.701Z,1.00
2018-09-08T17:40:24.555Z,0.60
2018-09-08T17:42:56.194Z,0.90
2018-09-08T17:45:27.972Z,0.77
2018-09-08T17:47:59.825Z,0.83
2018-09-08T17:50:31.665Z,1.20
2018-09-08T17:53:03.328Z,1.00
2018-09-08T17:55:35.180Z,0.80
2018-09-08T17:58:06.928Z,1.10
2018-09-08T18:00:39.298Z,1.20
2018-09-08T18:03:11.139Z,1.07
2018-09-08T18:05:43.225Z,1.30
2018-09-08T18:08:19.491Z,1.10
2018-09-08T18:10:51.295Z,0.83
2018-09-08T18:13:23.528Z,0.83
2018-09-08T18:15:55.406Z,1.10
2018-09-08T18:18:27.176Z,1.07
2018-09-08T18:20:58.914Z,0.90
2018-09-08T18:23:30.587Z,1.17
2018-09-08T18:26:02.351Z,1.00
2018-09-08T18:28:34.115Z,1.10
2018-09-08T18:31:05.763Z,1.10
2018-09-08T18:33:37.534Z,1.17
2018-09-08T18:36:10.072Z,1.43
2018-09-08T18:38:41.870Z,1.60
2018-09-08T18:41:13.634Z,1.30
2018-09-08T18:43:45.268Z,1.30
2018-09-08T18:46:17.122Z,1.17
2018-09-08T18:48:48.886Z,1.10
2018-09-08T18:51:20.768Z,1.60
2018-09-08T18:53:52.552Z,1.30
2018-09-08T18:56:24.568Z,1.70
2018-09-08T18:58:56.454Z,1.80
2018-09-08T19:01:28.214Z,1.80
2018-09-08T19:04:00.070Z,1.60
2018-09-08T19:06:31.914Z,1.77
2018-09-08T19:09:04.001Z,1.77
2018-09-08T19:11:35.933Z,1.97
2018-09-08T19:14:11.616Z,1.43
2018-09-08T19:16:43.446Z,2.43
2018-09-08T19:19:15.118Z,2.20
2018-09-08T19:21:46.911Z,2.30
2018-09-08T19:24:23.761Z,2.20
2018-09-08T19:26:55.598Z,2.17
2018-09-08T19:29:32.340Z,2.13
2018-09-08T19:32:04.033Z,1.87
2018-09-08T19:34:35.718Z,2.07
2018-09-08T19:37:07.770Z,1.80
2018-09-08T19:39:39.431Z,2.17
2018-09-08T19:42:11.094Z,2.40
2018-09-08T19:44:42.939Z,2.77
2018-09-08T19:48:19.541Z,3.13
2018-09-08T19:50:51.275Z,2.87
2018-09-08T19:53:27.757Z,3.17
2018-09-08T19:55:59.604Z,2.90
2018-09-08T19:58:36.162Z,3.10
2018-09-08T20:01:07.841Z,2.60
2018-09-08T20:03:39.565Z,2.73
2018-09-08T20:06:11.446Z,2.40
2018-09-08T20:08:43.191Z,2.57
2018-09-08T20:11:14.964Z,3.20
2018-09-08T20:13:46.880Z,2.40
2018-09-08T20:16:18.599Z,2.40
2018-09-08T20:18:50.209Z,2.17
2018-09-08T20:21:21.931Z,3.00
2018-09-08T20:23:53.631Z,2.80
2018-09-08T20:26:25.480Z,2.13
2018-09-08T20:28:57.210Z,2.40
2018-09-08T20:31:29.169Z,2.33
2018-09-08T20:34:00.854Z,2.40
2018-09-08T20:36:32.666Z,2.47
2018-09-08T20:39:05.010Z,2.83
2018-09-08T20:41:36.786Z,2.80
2018-09-08T20:44:08.683Z,2.53
2018-09-08T20:46:40.325Z,2.40
2018-09-08T20:49:12.038Z,2.50
2018-09-08T20:51:43.874Z,2.20
2018-09-08T20:54:15.701Z,1.87
2018-09-08T20:56:47.509Z,2.03
2018-09-08T20:59:19.406Z,2.47
2018-09-08T21:01:51.065Z,2.20
2018-09-08T21:04:22.746Z,2.47
2018-09-08T21:06:54.593Z,2.70
2018-09-08T21:09:26.547Z,2.70
2018-09-08T21:11:58.337Z,2.70
2018-09-08T21:14:30.078Z,3.13
2018-09-08T21:17:01.859Z,2.80
2018-09-08T21:19:33.520Z,3.10
2018-09-08T21:22:05.289Z,3.00
2018-09-08T21:24:36.917Z,3.73
2018-09-08T21:27:08.763Z,2.90
2018-09-08T21:29:40.433Z,3.17
2018-09-08T21:32:12.377Z,3.47
2018-09-08T21:34:44.047Z,3.20
2018-09-08T21:37:15.810Z,3.20
2018-09-08T21:39:47.559Z,3.67
2018-09-08T21:42:19.217Z,2.40
2018-09-08T21:44:50.913Z,3.20
2018-09-08T21:47:22.638Z,2.70
2018-09-08T21:49:54.290Z,2.93
2018-09-08T21:52:26.136Z,2.60
2018-09-08T21:54:57.937Z,3.40
2018-09-08T21:57:30.695Z,2.97
2018-09-08T22:00:02.446Z,2.77
2018-09-08T22:02:34.126Z,2.93
2018-09-08T22:05:06.093Z,2.43
2018-09-08T22:07:38.228Z,2.90
2018-09-08T22:10:10.369Z,2.17
2018-09-08T22:12:42.150Z,2.27
2018-09-08T22:15:13.937Z,2.13
2018-09-08T22:17:45.682Z,2.20
2018-09-08T22:20:17.344Z,2.53
2018-09-08T22:22:49.025Z,2.27
2018-09-08T22:25:20.855Z,2.63
2018-09-08T22:27:52.510Z,2.10
2018-09-08T22:30:24.257Z,2.90
2018-09-08T22:32:56.410Z,2.80
2018-09-08T22:35:28.228Z,2.70
2018-09-08T22:37:59.968Z,2.83
2018-09-08T22:40:31.743Z,2.80
2018-09-08T22:43:03.598Z,2.20
2018-09-08T22:45:35.364Z,2.93
2018-09-08T22:48:07.258Z,2.23
2018-09-08T22:50:39.717Z,2.70
2018-09-08T22:53:11.924Z,3.00
2018-09-08T22:55:43.702Z,2.60
2018-09-08T22:58:15.462Z,2.33
2018-09-08T23:00:47.129Z,2.60
2018-09-08T23:03:18.864Z,2.10
2018-09-08T23:05:50.737Z,2.17
2018-09-08T23:08:22.498Z,2.30
2018-09-08T23:10:54.169Z,2.10
2018-09-08T23:13:26.041Z,2.27
2018-09-08T23:15:57.678Z,2.63
2018-09-08T23:18:29.351Z,2.70
2018-09-08T23:21:01.114Z,1.90
2018-09-08T23:23:32.737Z,2.47
2018-09-08T23:26:04.510Z,2.60
2018-09-08T23:28:36.284Z,3.10
2018-09-08T23:31:08.032Z,2.30
2018-09-08T23:33:39.769Z,3.33
2018-09-08T23:36:11.438Z,2.03
2018-09-08T23:38:43.106Z,2.30
2018-09-08T23:41:14.858Z,2.03
2018-09-08T23:43:46.528Z,2.60
2018-09-08T23:46:18.372Z,2.20
2018-09-08T23:48:50.133Z,1.83
2018-09-08T23:51:21.814Z,2.23
2018-09-08T23:53:53.541Z,2.33
2018-09-08T23:56:25.405Z,2.27
2018-09-08T23:58:57.190Z,2.60
